Airport View

Enter AWOS ICAO identifier for current METAR.

ex. KFNL

KOTM 080253Z AUTO 15003KT 10SM CLR 26/23 A2991 RMK AO2 SLP121 T02560233 53004

8 Jul 2020 03:33

Frequency: 124.175

Phone: 641-684-9164

Other Area AWOS: KOOA - KFFL - KPEA - KOXV

TAF KOTM 072335Z 0800/0824 20004KT P6SM SCT060 FM081600 19007KT P6SM SCT050